CCA8105 ZBHH-ZLXY
Flight info
| Callsign | CCA8105 |
|---|---|
| Flight time | 1h 27m |
| Altitude | 30100 |
| Route | IBARO9ZD IBARO W47 LOVRA LOVRA1Z |
| Aircraft | B738/M-SDE2E3FGHIRWXY/LB1 |
Departure
| Time | 2026-05-08 12:32 |
|---|---|
| Airport | Hohhot Baita International Airport (ZBHH) |
Arrival
| Time | 2026-05-08 13:59 |
|---|---|
| Airport | Xi'an Xianyang International Airport (ZLXY) |
| Time | Latitude | Longitude | Altitude | Speed | Heading |
|---|---|---|---|---|---|
| 2026-05-08 11:57 | 40.85313 | 111.81533 | 3525 ft | 0 kts | 342° |
| 2026-05-08 12:19 | 40.85295 | 111.81541 | 3525 ft | 4 kts | 342° |
| 2026-05-08 12:19 | 40.85275 | 111.81550 | 3525 ft | 4 kts | 338° |
| 2026-05-08 12:20 | 40.85253 | 111.81567 | 3526 ft | 4 kts | 308° |
| 2026-05-08 12:20 | 40.85242 | 111.81597 | 3526 ft | 4 kts | 267° |
| 2026-05-08 12:20 | 40.85246 | 111.81629 | 3526 ft | 4 kts | 258° |
| 2026-05-08 12:20 | 40.85248 | 111.81643 | 3526 ft | 0 kts | 256° |
| 2026-05-08 12:24 | 40.85248 | 111.81642 | 3526 ft | 1 kts | 256° |
| 2026-05-08 12:24 | 40.85245 | 111.81625 | 3526 ft | 3 kts | 256° |
| 2026-05-08 12:24 | 40.85237 | 111.81580 | 3526 ft | 7 kts | 256° |
| 2026-05-08 12:24 | 40.85221 | 111.81508 | 3525 ft | 10 kts | 252° |
| 2026-05-08 12:25 | 40.85196 | 111.81417 | 3524 ft | 11 kts | 247° |
| 2026-05-08 12:25 | 40.85170 | 111.81319 | 3523 ft | 9 kts | 256° |
| 2026-05-08 12:25 | 40.85153 | 111.81227 | 3522 ft | 11 kts | 255° |
| 2026-05-08 12:25 | 40.85125 | 111.81119 | 3521 ft | 14 kts | 251° |
| 2026-05-08 12:26 | 40.85064 | 111.81064 | 3520 ft | 12 kts | 167° |
| 2026-05-08 12:26 | 40.84984 | 111.81094 | 3520 ft | 12 kts | 162° |
| 2026-05-08 12:26 | 40.84904 | 111.81125 | 3520 ft | 12 kts | 163° |
| 2026-05-08 12:26 | 40.84841 | 111.81079 | 3519 ft | 12 kts | 247° |
| 2026-05-08 12:27 | 40.84811 | 111.80963 | 3520 ft | 14 kts | 252° |
| 2026-05-08 12:27 | 40.84780 | 111.80835 | 3519 ft | 14 kts | 252° |
| 2026-05-08 12:27 | 40.84750 | 111.80707 | 3517 ft | 15 kts | 253° |
| 2026-05-08 12:27 | 40.84717 | 111.80563 | 3514 ft | 17 kts | 253° |
| 2026-05-08 12:28 | 40.84684 | 111.80431 | 3518 ft | 8 kts | 252° |
| 2026-05-08 12:28 | 40.84648 | 111.80367 | 3512 ft | 10 kts | 205° |
| 2026-05-08 12:28 | 40.84595 | 111.80387 | 3514 ft | 0 kts | 162° |
| 2026-05-08 12:30 | 40.84590 | 111.80389 | 3518 ft | 2 kts | 162° |
| 2026-05-08 12:30 | 40.84563 | 111.80401 | 3518 ft | 7 kts | 160° |
| 2026-05-08 12:30 | 40.84504 | 111.80433 | 3513 ft | 9 kts | 141° |
| 2026-05-08 12:31 | 40.84504 | 111.80487 | 3513 ft | 0 kts | 71° |
| 2026-05-08 12:31 | 40.84531 | 111.80595 | 3520 ft | 40 kts | 72° |
| 2026-05-08 12:31 | 40.84685 | 111.81243 | 3520 ft | 106 kts | 72° |
| 2026-05-08 12:31 | 40.84964 | 111.82421 | 3531 ft | 161 kts | 72° |
| 2026-05-08 12:32 | 40.85312 | 111.83989 | 3824 ft | 186 kts | 74° |
| 2026-05-08 12:32 | 40.85691 | 111.85617 | 4619 ft | 188 kts | 72° |
| 2026-05-08 12:32 | 40.86105 | 111.87368 | 4952 ft | 214 kts | 72° |
| 2026-05-08 12:32 | 40.86565 | 111.89316 | 5293 ft | 233 kts | 72° |
| 2026-05-08 12:33 | 40.87067 | 111.91456 | 5488 ft | 255 kts | 72° |
| 2026-05-08 12:33 | 40.87612 | 111.93784 | 5787 ft | 272 kts | 72° |
| 2026-05-08 12:33 | 40.88187 | 111.96245 | 6141 ft | 292 kts | 73° |
| 2026-05-08 12:33 | 40.88787 | 111.98832 | 6870 ft | 295 kts | 73° |
| 2026-05-08 12:34 | 40.89398 | 112.01464 | 7509 ft | 304 kts | 73° |
| 2026-05-08 12:34 | 40.89711 | 112.04252 | 8170 ft | 310 kts | 95° |
| 2026-05-08 12:34 | 40.89164 | 112.07001 | 8832 ft | 312 kts | 120° |
| 2026-05-08 12:34 | 40.87869 | 112.09273 | 9582 ft | 308 kts | 143° |
| 2026-05-08 12:35 | 40.86056 | 112.10711 | 10240 ft | 305 kts | 165° |
| 2026-05-08 12:35 | 40.83935 | 112.11235 | 10471 ft | 320 kts | 181° |
| 2026-05-08 12:35 | 40.81639 | 112.11364 | 10671 ft | 342 kts | 182° |
| 2026-05-08 12:35 | 40.79232 | 112.11228 | 11062 ft | 348 kts | 197° |
| 2026-05-08 12:36 | 40.77081 | 112.09895 | 11694 ft | 341 kts | 221° |
| 2026-05-08 12:36 | 40.75963 | 112.08459 | 12161 ft | 338 kts | 234° |
| 2026-05-08 12:36 | 40.74793 | 112.05794 | 12810 ft | 337 kts | 253° |
| 2026-05-08 12:36 | 40.74174 | 112.02816 | 13470 ft | 340 kts | 258° |
| 2026-05-08 12:37 | 40.73602 | 111.99762 | 14090 ft | 344 kts | 258° |
| 2026-05-08 12:37 | 40.73017 | 111.96699 | 14760 ft | 346 kts | 258° |
| 2026-05-08 12:37 | 40.72137 | 111.93728 | 15368 ft | 355 kts | 240° |
| 2026-05-08 12:37 | 40.70448 | 111.91316 | 16003 ft | 365 kts | 220° |
| 2026-05-08 12:38 | 40.68191 | 111.89712 | 16631 ft | 375 kts | 202° |
| 2026-05-08 12:38 | 40.65608 | 111.89101 | 17373 ft | 381 kts | 189° |
| 2026-05-08 12:38 | 40.62936 | 111.88853 | 17921 ft | 388 kts | 187° |
| 2026-05-08 12:38 | 40.60222 | 111.88666 | 18426 ft | 393 kts | 187° |
| 2026-05-08 12:39 | 40.57481 | 111.88490 | 18953 ft | 396 kts | 187° |
| 2026-05-08 12:39 | 40.54723 | 111.88304 | 19484 ft | 399 kts | 187° |
| 2026-05-08 12:39 | 40.51949 | 111.88103 | 20004 ft | 402 kts | 187° |
| 2026-05-08 12:39 | 40.49147 | 111.87888 | 20508 ft | 405 kts | 187° |
| 2026-05-08 12:40 | 40.46328 | 111.87666 | 21078 ft | 406 kts | 187° |
| 2026-05-08 12:40 | 40.43494 | 111.87437 | 21539 ft | 410 kts | 187° |
| 2026-05-08 12:40 | 40.40625 | 111.87200 | 21956 ft | 415 kts | 187° |
| 2026-05-08 12:40 | 40.37726 | 111.86960 | 22394 ft | 420 kts | 187° |
| 2026-05-08 12:41 | 40.34801 | 111.86719 | 22858 ft | 423 kts | 187° |
| 2026-05-08 12:41 | 40.31854 | 111.86479 | 23316 ft | 427 kts | 187° |
| 2026-05-08 12:41 | 40.28879 | 111.86235 | 23704 ft | 430 kts | 187° |
| 2026-05-08 12:41 | 40.25875 | 111.85989 | 24029 ft | 435 kts | 187° |
| 2026-05-08 12:42 | 40.22846 | 111.85742 | 24426 ft | 437 kts | 187° |
| 2026-05-08 12:42 | 40.19810 | 111.85496 | 24855 ft | 438 kts | 187° |
| 2026-05-08 12:42 | 40.16769 | 111.85249 | 25264 ft | 439 kts | 187° |
| 2026-05-08 12:42 | 40.13711 | 111.85001 | 25726 ft | 439 kts | 187° |
| 2026-05-08 12:43 | 40.10674 | 111.84756 | 26261 ft | 437 kts | 187° |
| 2026-05-08 12:43 | 40.07650 | 111.84511 | 26808 ft | 434 kts | 187° |
| 2026-05-08 12:43 | 40.04635 | 111.84265 | 27274 ft | 434 kts | 187° |
| 2026-05-08 12:43 | 40.01659 | 111.84014 | 27721 ft | 433 kts | 190° |
| 2026-05-08 12:44 | 39.98777 | 111.83107 | 28172 ft | 422 kts | 208° |
| 2026-05-08 12:44 | 39.96304 | 111.81174 | 28703 ft | 410 kts | 223° |
| 2026-05-08 12:44 | 39.94117 | 111.78823 | 29266 ft | 406 kts | 225° |
| 2026-05-08 12:44 | 39.91968 | 111.76447 | 29757 ft | 405 kts | 225° |
| 2026-05-08 12:45 | 39.89800 | 111.74035 | 30056 ft | 407 kts | 225° |
| 2026-05-08 12:45 | 39.87651 | 111.71654 | 30034 ft | 412 kts | 225° |
| 2026-05-08 12:45 | 39.83286 | 111.66878 | 30038 ft | 406 kts | 225° |
| 2026-05-08 12:46 | 39.78933 | 111.62164 | 30065 ft | 405 kts | 225° |
| 2026-05-08 12:46 | 39.74619 | 111.57507 | 30060 ft | 406 kts | 225° |
| 2026-05-08 12:47 | 39.70263 | 111.52814 | 30042 ft | 407 kts | 224° |
| 2026-05-08 12:47 | 39.65910 | 111.48134 | 30045 ft | 407 kts | 224° |
| 2026-05-08 12:48 | 39.61541 | 111.43444 | 30049 ft | 408 kts | 224° |
| 2026-05-08 12:48 | 39.57169 | 111.38757 | 30048 ft | 408 kts | 224° |
| 2026-05-08 12:49 | 39.52794 | 111.34076 | 30041 ft | 407 kts | 224° |
| 2026-05-08 12:49 | 39.48436 | 111.29423 | 30042 ft | 405 kts | 224° |
| 2026-05-08 12:50 | 39.44096 | 111.24795 | 30041 ft | 403 kts | 224° |
| 2026-05-08 12:50 | 39.39770 | 111.20189 | 30047 ft | 402 kts | 224° |
| 2026-05-08 12:51 | 39.33295 | 111.13309 | 30030 ft | 401 kts | 224° |
| 2026-05-08 12:52 | 39.28980 | 111.08732 | 30056 ft | 402 kts | 224° |
| 2026-05-08 12:52 | 39.22473 | 111.01845 | 30061 ft | 405 kts | 224° |
| 2026-05-08 12:53 | 39.18196 | 110.97134 | 30032 ft | 400 kts | 235° |
| 2026-05-08 12:53 | 39.16794 | 110.94124 | 30066 ft | 389 kts | 252° |
| 2026-05-08 12:53 | 39.16086 | 110.90790 | 30042 ft | 384 kts | 266° |
| 2026-05-08 12:54 | 39.16196 | 110.83960 | 30045 ft | 382 kts | 276° |
| 2026-05-08 12:54 | 39.16593 | 110.77117 | 30040 ft | 383 kts | 276° |
| 2026-05-08 12:55 | 39.16954 | 110.70424 | 30052 ft | 386 kts | 275° |
| 2026-05-08 12:55 | 39.17259 | 110.64198 | 30056 ft | 387 kts | 275° |
| 2026-05-08 12:56 | 39.17581 | 110.57272 | 30047 ft | 388 kts | 275° |
| 2026-05-08 12:56 | 39.17898 | 110.50322 | 30040 ft | 388 kts | 275° |
| 2026-05-08 12:57 | 39.18201 | 110.43597 | 30038 ft | 387 kts | 275° |
| 2026-05-08 12:57 | 39.18510 | 110.36643 | 30038 ft | 387 kts | 275° |
| 2026-05-08 12:58 | 39.18813 | 110.29736 | 30036 ft | 386 kts | 275° |
| 2026-05-08 12:58 | 39.19012 | 110.25167 | 30037 ft | 385 kts | 275° |
| 2026-05-08 12:59 | 39.19308 | 110.18266 | 30039 ft | 385 kts | 275° |
| 2026-05-08 12:59 | 39.19617 | 110.11368 | 30050 ft | 384 kts | 275° |
| 2026-05-08 13:00 | 39.19945 | 110.04540 | 30044 ft | 384 kts | 275° |
| 2026-05-08 13:00 | 39.20271 | 109.97682 | 30048 ft | 383 kts | 275° |
| 2026-05-08 13:01 | 39.20590 | 109.90839 | 30036 ft | 382 kts | 275° |
| 2026-05-08 13:01 | 39.20902 | 109.84009 | 30040 ft | 381 kts | 275° |
| 2026-05-08 13:02 | 39.21211 | 109.77187 | 30045 ft | 380 kts | 275° |
| 2026-05-08 13:02 | 39.21514 | 109.70393 | 30020 ft | 379 kts | 275° |
| 2026-05-08 13:03 | 39.21814 | 109.63595 | 30031 ft | 380 kts | 275° |
| 2026-05-08 13:03 | 39.21755 | 109.56787 | 30026 ft | 387 kts | 257° |
| 2026-05-08 13:04 | 39.20686 | 109.53581 | 30043 ft | 395 kts | 241° |
| 2026-05-08 13:04 | 39.18904 | 109.50851 | 30044 ft | 404 kts | 225° |
| 2026-05-08 13:04 | 39.16548 | 109.48799 | 30040 ft | 415 kts | 209° |
| 2026-05-08 13:04 | 39.13757 | 109.47717 | 30067 ft | 424 kts | 195° |
| 2026-05-08 13:05 | 39.07921 | 109.46394 | 30058 ft | 427 kts | 194° |
| 2026-05-08 13:05 | 39.02087 | 109.45016 | 30027 ft | 423 kts | 196° |
| 2026-05-08 13:06 | 38.96329 | 109.43582 | 30051 ft | 422 kts | 196° |
| 2026-05-08 13:06 | 38.90554 | 109.42157 | 30052 ft | 424 kts | 196° |
| 2026-05-08 13:07 | 38.84789 | 109.40733 | 30050 ft | 425 kts | 196° |
| 2026-05-08 13:07 | 38.78994 | 109.39291 | 30045 ft | 424 kts | 198° |
| 2026-05-08 13:08 | 38.73214 | 109.37854 | 30049 ft | 421 kts | 198° |
| 2026-05-08 13:08 | 38.67472 | 109.36430 | 30050 ft | 419 kts | 198° |
| 2026-05-08 13:09 | 38.61757 | 109.35014 | 30030 ft | 417 kts | 199° |
| 2026-05-08 13:09 | 38.56069 | 109.33609 | 30054 ft | 416 kts | 200° |
| 2026-05-08 13:10 | 38.50398 | 109.32207 | 30055 ft | 415 kts | 200° |
| 2026-05-08 13:10 | 38.44722 | 109.30807 | 30062 ft | 415 kts | 199° |
| 2026-05-08 13:11 | 38.39041 | 109.29415 | 30043 ft | 417 kts | 198° |
| 2026-05-08 13:11 | 38.33190 | 109.28797 | 30067 ft | 426 kts | 190° |
| 2026-05-08 13:12 | 38.27244 | 109.28540 | 30065 ft | 427 kts | 190° |
| 2026-05-08 13:12 | 38.21293 | 109.28226 | 30065 ft | 428 kts | 191° |
| 2026-05-08 13:13 | 38.15348 | 109.27862 | 30060 ft | 427 kts | 190° |
| 2026-05-08 13:13 | 38.09448 | 109.27495 | 30064 ft | 427 kts | 190° |
| 2026-05-08 13:14 | 38.03515 | 109.27131 | 30068 ft | 427 kts | 190° |
| 2026-05-08 13:14 | 37.97581 | 109.26782 | 30062 ft | 426 kts | 190° |
| 2026-05-08 13:15 | 37.91664 | 109.26436 | 30072 ft | 425 kts | 190° |
| 2026-05-08 13:15 | 37.85749 | 109.26088 | 30085 ft | 425 kts | 190° |
| 2026-05-08 13:16 | 37.79858 | 109.25742 | 30082 ft | 426 kts | 190° |
| 2026-05-08 13:16 | 37.73932 | 109.25394 | 30058 ft | 426 kts | 190° |
| 2026-05-08 13:17 | 37.68027 | 109.25050 | 30090 ft | 424 kts | 190° |
| 2026-05-08 13:17 | 37.62141 | 109.24708 | 30098 ft | 422 kts | 190° |
| 2026-05-08 13:18 | 37.56278 | 109.24365 | 30101 ft | 421 kts | 190° |
| 2026-05-08 13:18 | 37.50433 | 109.24023 | 30103 ft | 420 kts | 190° |
| 2026-05-08 13:19 | 37.44600 | 109.23683 | 30116 ft | 418 kts | 190° |
| 2026-05-08 13:19 | 37.38809 | 109.23345 | 30140 ft | 418 kts | 190° |
| 2026-05-08 13:20 | 37.32981 | 109.23006 | 30148 ft | 420 kts | 190° |
| 2026-05-08 13:20 | 37.27138 | 109.22666 | 30147 ft | 421 kts | 190° |
| 2026-05-08 13:21 | 37.21275 | 109.22328 | 30145 ft | 422 kts | 190° |
| 2026-05-08 13:21 | 37.16399 | 109.22045 | 30148 ft | 422 kts | 190° |
| 2026-05-08 13:22 | 37.10631 | 109.21714 | 30156 ft | 422 kts | 190° |
| 2026-05-08 13:22 | 37.04768 | 109.21376 | 30150 ft | 421 kts | 190° |
| 2026-05-08 13:23 | 36.98903 | 109.21039 | 30154 ft | 421 kts | 190° |
| 2026-05-08 13:23 | 36.93046 | 109.20702 | 30163 ft | 422 kts | 190° |
| 2026-05-08 13:24 | 36.87175 | 109.20366 | 30163 ft | 422 kts | 190° |
| 2026-05-08 13:24 | 36.81301 | 109.20030 | 30150 ft | 423 kts | 190° |
| 2026-05-08 13:25 | 36.75421 | 109.19693 | 30175 ft | 423 kts | 190° |
| 2026-05-08 13:25 | 36.69577 | 109.19361 | 30165 ft | 423 kts | 190° |
| 2026-05-08 13:26 | 36.63698 | 109.19025 | 30169 ft | 423 kts | 190° |
| 2026-05-08 13:26 | 36.57816 | 109.18691 | 30175 ft | 422 kts | 190° |
| 2026-05-08 13:27 | 36.51955 | 109.18358 | 30176 ft | 422 kts | 190° |
| 2026-05-08 13:27 | 36.46097 | 109.18025 | 30192 ft | 421 kts | 190° |
| 2026-05-08 13:28 | 36.40237 | 109.17693 | 30197 ft | 421 kts | 190° |
| 2026-05-08 13:28 | 36.34379 | 109.17335 | 30191 ft | 421 kts | 190° |
| 2026-05-08 13:29 | 36.28526 | 109.16935 | 30184 ft | 421 kts | 190° |
| 2026-05-08 13:29 | 36.22698 | 109.16541 | 30199 ft | 420 kts | 191° |
| 2026-05-08 13:30 | 36.16866 | 109.16146 | 30207 ft | 420 kts | 191° |
| 2026-05-08 13:30 | 36.11069 | 109.15758 | 30209 ft | 419 kts | 190° |
| 2026-05-08 13:31 | 36.05245 | 109.15371 | 30202 ft | 419 kts | 190° |
| 2026-05-08 13:31 | 35.99430 | 109.14984 | 30202 ft | 419 kts | 190° |
| 2026-05-08 13:32 | 35.93605 | 109.14597 | 30221 ft | 419 kts | 190° |
| 2026-05-08 13:32 | 35.87784 | 109.14211 | 30205 ft | 418 kts | 190° |
| 2026-05-08 13:33 | 35.82118 | 109.13237 | 30238 ft | 403 kts | 204° |
| 2026-05-08 13:33 | 35.79469 | 109.12171 | 30059 ft | 397 kts | 206° |
| 2026-05-08 13:33 | 35.76885 | 109.11077 | 29785 ft | 390 kts | 206° |
| 2026-05-08 13:34 | 35.74335 | 109.09994 | 29488 ft | 383 kts | 206° |
| 2026-05-08 13:34 | 35.71835 | 109.08948 | 29209 ft | 377 kts | 205° |
| 2026-05-08 13:34 | 35.69370 | 109.07932 | 28880 ft | 373 kts | 205° |
| 2026-05-08 13:34 | 35.66901 | 109.06923 | 28379 ft | 373 kts | 205° |
| 2026-05-08 13:35 | 35.64450 | 109.05932 | 28022 ft | 370 kts | 204° |
| 2026-05-08 13:35 | 35.62015 | 109.04953 | 27650 ft | 367 kts | 204° |
| 2026-05-08 13:35 | 35.59601 | 109.03986 | 27297 ft | 363 kts | 204° |
| 2026-05-08 13:35 | 35.57207 | 109.03029 | 26963 ft | 361 kts | 204° |
| 2026-05-08 13:36 | 35.54823 | 109.02076 | 26619 ft | 359 kts | 204° |
| 2026-05-08 13:36 | 35.52456 | 109.01131 | 26261 ft | 357 kts | 203° |
| 2026-05-08 13:36 | 35.50093 | 109.00188 | 25939 ft | 355 kts | 203° |
| 2026-05-08 13:36 | 35.47745 | 108.99252 | 25596 ft | 354 kts | 203° |
| 2026-05-08 13:37 | 35.45414 | 108.98323 | 25247 ft | 352 kts | 203° |
| 2026-05-08 13:37 | 35.43086 | 108.97396 | 24937 ft | 351 kts | 202° |
| 2026-05-08 13:37 | 35.40761 | 108.96471 | 24595 ft | 350 kts | 202° |
| 2026-05-08 13:37 | 35.38475 | 108.95562 | 24258 ft | 349 kts | 202° |
| 2026-05-08 13:38 | 35.36166 | 108.94644 | 23919 ft | 348 kts | 202° |
| 2026-05-08 13:38 | 35.33858 | 108.93727 | 23536 ft | 349 kts | 202° |
| 2026-05-08 13:38 | 35.31556 | 108.92813 | 23174 ft | 347 kts | 201° |
| 2026-05-08 13:38 | 35.29259 | 108.91902 | 22821 ft | 346 kts | 201° |
| 2026-05-08 13:39 | 35.26976 | 108.90997 | 22475 ft | 344 kts | 201° |
| 2026-05-08 13:39 | 35.24707 | 108.90098 | 22141 ft | 342 kts | 201° |
| 2026-05-08 13:39 | 35.22449 | 108.89205 | 21800 ft | 340 kts | 201° |
| 2026-05-08 13:39 | 35.20204 | 108.88316 | 21476 ft | 337 kts | 200° |
| 2026-05-08 13:40 | 35.17980 | 108.87435 | 21159 ft | 335 kts | 200° |
| 2026-05-08 13:40 | 35.15763 | 108.86558 | 20834 ft | 334 kts | 200° |
| 2026-05-08 13:40 | 35.13554 | 108.85685 | 20505 ft | 333 kts | 200° |
| 2026-05-08 13:40 | 35.11354 | 108.84817 | 20193 ft | 331 kts | 200° |
| 2026-05-08 13:41 | 35.09153 | 108.83949 | 19792 ft | 334 kts | 199° |
| 2026-05-08 13:41 | 35.06948 | 108.83081 | 19472 ft | 333 kts | 199° |
| 2026-05-08 13:41 | 35.04743 | 108.82213 | 19125 ft | 332 kts | 199° |
| 2026-05-08 13:41 | 35.02543 | 108.81347 | 18816 ft | 332 kts | 199° |
| 2026-05-08 13:42 | 35.00346 | 108.80483 | 18487 ft | 332 kts | 199° |
| 2026-05-08 13:42 | 34.98151 | 108.79620 | 18128 ft | 331 kts | 198° |
| 2026-05-08 13:42 | 34.95962 | 108.78760 | 17778 ft | 330 kts | 198° |
| 2026-05-08 13:42 | 34.93781 | 108.77904 | 17455 ft | 328 kts | 198° |
| 2026-05-08 13:43 | 34.91614 | 108.77055 | 17124 ft | 327 kts | 198° |
| 2026-05-08 13:43 | 34.89454 | 108.76208 | 16809 ft | 325 kts | 198° |
| 2026-05-08 13:43 | 34.87309 | 108.75368 | 16498 ft | 323 kts | 198° |
| 2026-05-08 13:43 | 34.85397 | 108.74619 | 16221 ft | 322 kts | 198° |
| 2026-05-08 13:44 | 34.83272 | 108.73787 | 15905 ft | 320 kts | 198° |
| 2026-05-08 13:44 | 34.81161 | 108.72961 | 15604 ft | 318 kts | 198° |
| 2026-05-08 13:44 | 34.79057 | 108.72138 | 15301 ft | 316 kts | 198° |
| 2026-05-08 13:44 | 34.76970 | 108.71322 | 14988 ft | 315 kts | 198° |
| 2026-05-08 13:45 | 34.74886 | 108.70513 | 14695 ft | 313 kts | 197° |
| 2026-05-08 13:45 | 34.72813 | 108.69728 | 14408 ft | 311 kts | 197° |
| 2026-05-08 13:45 | 34.70747 | 108.68953 | 14119 ft | 310 kts | 197° |
| 2026-05-08 13:45 | 34.68691 | 108.68183 | 13800 ft | 309 kts | 197° |
| 2026-05-08 13:46 | 34.66642 | 108.67414 | 13464 ft | 307 kts | 197° |
| 2026-05-08 13:46 | 34.64602 | 108.66649 | 13148 ft | 306 kts | 197° |
| 2026-05-08 13:46 | 34.62611 | 108.65901 | 12973 ft | 299 kts | 197° |
| 2026-05-08 13:46 | 34.60649 | 108.65163 | 12828 ft | 292 kts | 197° |
| 2026-05-08 13:47 | 34.58732 | 108.64444 | 12690 ft | 284 kts | 197° |
| 2026-05-08 13:47 | 34.56865 | 108.63744 | 12559 ft | 277 kts | 198° |
| 2026-05-08 13:47 | 34.55049 | 108.63064 | 12404 ft | 271 kts | 197° |
| 2026-05-08 13:47 | 34.53248 | 108.62405 | 12138 ft | 269 kts | 197° |
| 2026-05-08 13:48 | 34.51461 | 108.61756 | 11908 ft | 267 kts | 197° |
| 2026-05-08 13:48 | 34.49697 | 108.61117 | 11672 ft | 264 kts | 197° |
| 2026-05-08 13:48 | 34.47938 | 108.60478 | 11408 ft | 263 kts | 197° |
| 2026-05-08 13:48 | 34.46280 | 108.59599 | 11116 ft | 260 kts | 221° |
| 2026-05-08 13:49 | 34.45054 | 108.58020 | 10906 ft | 256 kts | 230° |
| 2026-05-08 13:49 | 34.43881 | 108.56398 | 10625 ft | 256 kts | 230° |
| 2026-05-08 13:49 | 34.42701 | 108.54785 | 10364 ft | 256 kts | 230° |
| 2026-05-08 13:49 | 34.41521 | 108.53176 | 10089 ft | 255 kts | 230° |
| 2026-05-08 13:50 | 34.40338 | 108.51569 | 9805 ft | 255 kts | 230° |
| 2026-05-08 13:50 | 34.39157 | 108.49964 | 9518 ft | 255 kts | 230° |
| 2026-05-08 13:50 | 34.37978 | 108.48365 | 9230 ft | 252 kts | 229° |
| 2026-05-08 13:50 | 34.36822 | 108.46800 | 8950 ft | 246 kts | 229° |
| 2026-05-08 13:51 | 34.35693 | 108.45274 | 8683 ft | 239 kts | 229° |
| 2026-05-08 13:51 | 34.34584 | 108.43840 | 8484 ft | 229 kts | 220° |
| 2026-05-08 13:51 | 34.33138 | 108.43120 | 8280 ft | 226 kts | 182° |
| 2026-05-08 13:51 | 34.31572 | 108.43284 | 8157 ft | 233 kts | 167° |
| 2026-05-08 13:52 | 34.29981 | 108.43806 | 7877 ft | 240 kts | 164° |
| 2026-05-08 13:52 | 34.28372 | 108.44370 | 7583 ft | 240 kts | 165° |
| 2026-05-08 13:52 | 34.26777 | 108.44916 | 7320 ft | 235 kts | 165° |
| 2026-05-08 13:52 | 34.25241 | 108.45524 | 7047 ft | 230 kts | 152° |
| 2026-05-08 13:53 | 34.24138 | 108.46861 | 6831 ft | 226 kts | 117° |
| 2026-05-08 13:53 | 34.23804 | 108.48696 | 6611 ft | 227 kts | 86° |
| 2026-05-08 13:53 | 34.24335 | 108.50462 | 6357 ft | 228 kts | 51° |
| 2026-05-08 13:53 | 34.25372 | 108.51897 | 6140 ft | 228 kts | 50° |
| 2026-05-08 13:54 | 34.26401 | 108.53375 | 5880 ft | 228 kts | 50° |
| 2026-05-08 13:54 | 34.27421 | 108.54822 | 5622 ft | 224 kts | 50° |
| 2026-05-08 13:54 | 34.28440 | 108.56205 | 5453 ft | 214 kts | 48° |
| 2026-05-08 13:54 | 34.29424 | 108.57526 | 5211 ft | 210 kts | 49° |
| 2026-05-08 13:55 | 34.30376 | 108.58832 | 4971 ft | 205 kts | 50° |
| 2026-05-08 13:55 | 34.31304 | 108.60119 | 4708 ft | 201 kts | 50° |
| 2026-05-08 13:55 | 34.33124 | 108.62649 | 4179 ft | 197 kts | 50° |
| 2026-05-08 13:56 | 34.34014 | 108.63884 | 3910 ft | 192 kts | 50° |
| 2026-05-08 13:56 | 34.34870 | 108.65073 | 3675 ft | 182 kts | 51° |
| 2026-05-08 13:56 | 34.35668 | 108.66181 | 3454 ft | 171 kts | 50° |
| 2026-05-08 13:56 | 34.36425 | 108.67232 | 3235 ft | 164 kts | 50° |
| 2026-05-08 13:57 | 34.37174 | 108.68273 | 3022 ft | 160 kts | 49° |
| 2026-05-08 13:57 | 34.37888 | 108.69264 | 2818 ft | 157 kts | 49° |
| 2026-05-08 13:57 | 34.38604 | 108.70258 | 2622 ft | 157 kts | 49° |
| 2026-05-08 13:57 | 34.39317 | 108.71256 | 2458 ft | 156 kts | 50° |
| 2026-05-08 13:58 | 34.40026 | 108.72261 | 2206 ft | 159 kts | 49° |
| 2026-05-08 13:58 | 34.40751 | 108.73250 | 2032 ft | 155 kts | 49° |
| 2026-05-08 13:58 | 34.41455 | 108.74244 | 1787 ft | 156 kts | 49° |
| 2026-05-08 13:58 | 34.42177 | 108.75225 | 1590 ft | 156 kts | 48° |
| 2026-05-08 13:59 | 34.42809 | 108.76088 | 1571 ft | 108 kts | 48° |
| 2026-05-08 13:59 | 34.43162 | 108.76574 | 1575 ft | 56 kts | 49° |
| 2026-05-08 13:59 | 34.43392 | 108.76890 | 1574 ft | 39 kts | 48° |
| 2026-05-08 13:59 | 34.43568 | 108.77043 | 1574 ft | 25 kts | 22° |
| 2026-05-08 14:00 | 34.43604 | 108.77060 | 1575 ft | 0 kts | 19° |
| 2026-05-08 14:02 | 34.43605 | 108.77060 | 1575 ft | 0 kts | 19° |
| 2026-05-08 14:02 | 34.43614 | 108.77064 | 1575 ft | 3 kts | 19° |
| 2026-05-08 14:02 | 34.43642 | 108.77075 | 1575 ft | 5 kts | 11° |
| 2026-05-08 14:03 | 34.43684 | 108.77061 | 1575 ft | 7 kts | 323° |
| 2026-05-08 14:03 | 34.43693 | 108.76997 | 1575 ft | 9 kts | 242° |
| 2026-05-08 14:03 | 34.43646 | 108.76929 | 1575 ft | 12 kts | 230° |
| 2026-05-08 14:03 | 34.43587 | 108.76846 | 1575 ft | 14 kts | 229° |
| 2026-05-08 14:04 | 34.43522 | 108.76755 | 1574 ft | 15 kts | 228° |
| 2026-05-08 14:04 | 34.43458 | 108.76668 | 1574 ft | 14 kts | 229° |
| 2026-05-08 14:04 | 34.43415 | 108.76607 | 1574 ft | 13 kts | 229° |
| 2026-05-08 14:04 | 34.43418 | 108.76472 | 1574 ft | 13 kts | 284° |
| 2026-05-08 14:05 | 34.43393 | 108.76411 | 1574 ft | 13 kts | 224° |
| 2026-05-08 14:05 | 34.43327 | 108.76322 | 1573 ft | 15 kts | 229° |
| 2026-05-08 14:05 | 34.43269 | 108.76239 | 1573 ft | 11 kts | 236° |
| 2026-05-08 14:05 | 34.43316 | 108.76132 | 1573 ft | 13 kts | 318° |
| 2026-05-08 14:06 | 34.43371 | 108.76073 | 1573 ft | 9 kts | 319° |
| 2026-05-08 14:06 | 34.43406 | 108.76038 | 1573 ft | 10 kts | 319° |
| 2026-05-08 14:06 | 34.43451 | 108.75990 | 1573 ft | 7 kts | 319° |
| 2026-05-08 14:06 | 34.43469 | 108.75933 | 1573 ft | 6 kts | 252° |
| 2026-05-08 14:07 | 34.43449 | 108.75906 | 1573 ft | 4 kts | 217° |
| 2026-05-08 14:07 | 34.43435 | 108.75895 | 1573 ft | 2 kts | 211° |
| 2026-05-08 14:07 | 34.43424 | 108.75885 | 1573 ft | 0 kts | 221° |
| 2026-05-08 14:07 | 34.43423 | 108.75884 | 1573 ft | 0 kts | 221° |